Observations for LEEDS AND BRADFORD, United Kingdom (EGNM)

EGNM 221320Z 23007KT 200V260 9999 VCSH SCT010 SCT020 02/01 Q0996
EGNM 221250Z 23008KT 9999 FEW009 02/00 Q0997
EGNM 221220Z 24007KT 9999 FEW009 02/01 Q0997
EGNM 221150Z 25008KT 9999 FEW015 02/01 Q0997
EGNM 221120Z 26010KT 230V290 9999 VCSH SCT015CB 02/00 Q0998 
EGNM 221050Z 27011KT 9999 FEW010CB 02/00 Q0998  
EGNM 221020Z 26015KT 9999 FEW010CB 01/00 Q0998  
EGNM 220950Z 27014KT 9999 FEW005 SCT010CB 01/00 Q0998   
EGNM 220920Z 26013KT 9999 VCSH FEW005 SCT010CB 01/M00 Q0998 
EGNM 220850Z 26014KT 9999 VCSH SCT008 SCT015 01/00 Q0998
EGNM 220820Z 25015KT 7000 2000W -SHSN SCT008 SCT015 01/00 Q0998 
EGNM 220750Z 26010KT 9999 -SHSN SCT009 SCT017 01/00 Q0998   
EGNM 220720Z 26010KT 9999 SCT010 01/00 Q0998
EGNM 220650Z 23006KT 9999 SCT012 01/M00 Q0998   
EGNM 220620Z 22005KT 9999 SCT015 01/M00 Q0998   
EGNM 220550Z 26006KT 9999 SCT010 01/M00 Q0999   
EGNM 220520Z 26007KT 9999 FEW006 SCT012 00/M00 Q0999
EGNM 220450Z 26004KT 190V300 9999 SCT008 01/00 Q0999
EGNM 220420Z 30004KT 250V350 9999 SCT008 01/M00 Q0999   
EGNM 220350Z 29006KT 230V350 9999 SCT005 BKN007 01/M00 Q0999
EGNM 220320Z 27009KT 190V350 9999 SCT007 BKN009 01/00 Q0999 
EGNM 220250Z 29011KT 190V350 9999 SCT007 BKN009 02/01 Q1000 
EGNM 220220Z 28005KT 190V360 9999 BKN009 02/01 Q1000
EGNM 220150Z 26005KT 200V340 9999 BKN009 02/01 Q1000
EGNM 220120Z 25006KT 210V350 9999 -RA BKN011 02/01 Q1000
EGNM 220050Z 24005KT 200V280 9999 BKN009 02/01 Q1001
EGNM 220020Z 24007KT 200V270 9999 -RASN SCT006 BKN009 03/02 Q1001   
EGNM 212350Z 20011KT 180V240 4000 -RASN SCT003 BKN006 02/01 Q1001   
EGNM 212320Z 18014KT 6000 -RASN SCT004 BKN008 02/02 Q1002   
EGNM 212250Z 17012KT 8000 -RA BKN007 02/02 Q1002
EGNM 212220Z 17011KT 140V200 8000 -RA BKN007 03/02 Q1003
EGNM 212150Z 17010KT 150V210 9999 -RA BKN013 03/02 Q1004
EGNM 212120Z 17007KT 130V210 9999 SCT015 03/02 Q1005
EGNM 212050Z 17012KT 9999 SCT015 03/01 Q1005
EGNM 212020Z 18008KT 150V220 9999 SCT015 SCT018 03/01 Q1006 
EGNM 211950Z 17009KT 140V210 9999 SCT018 03/01 Q1007
EGNM 211920Z 18008KT 9999 SCT018 04/01 Q1008
EGNM 211850Z 19009KT 9999 FEW020 SCT040 04/01 Q1009 
EGNM 211820Z 20010KT 160V250 9999 FEW020 SCT045 04/01 Q1010 
EGNM 211750Z 20014KT 170V230 9999 FEW020 SCT045 04/01 Q1010 
EGNM 211720Z VRB05KT 9999 FEW020 SCT045 04/01 Q1011 
EGNM 211650Z 20007KT 170V240 9999 FEW020 SCT039 03/01 Q1012 
EGNM 211620Z 21009KT 180V260 9999 FEW020 SCT039 04/01 Q1013 
EGNM 211550Z 20008KT 160V240 9999 FEW038 03/01 Q1013
EGNM 211520Z 21010KT 160V240 9999 FEW016 SCT038 03/01 Q1014 
EGNM 211450Z 24006KT 200V290 9999 FEW016 SCT038 04/01 Q1015 
EGNM 211420Z 23009KT 190V280 9999 FEW012 SCT021 04/01 Q1015 
EGNM 211350Z 23008KT 190V270 9999 SCT010 SCT020 04/01 Q1016 
EGNM 211320Z 22007KT 180V250 9999 SCT010 SCT020 04/02 Q1016 
EGNM 211250Z 22007KT 190V260 9999 SCT010 SCT018 04/02 Q1017